createdAt,value
2023-06-04T00:01:16.316Z,10.78
2023-06-04T00:03:20.652Z,10.76
2023-06-04T00:05:26.512Z,10.74
2023-06-04T00:07:29.932Z,10.72
2023-06-04T00:09:36.317Z,10.70
2023-06-04T00:11:41.225Z,10.66
2023-06-04T00:13:44.579Z,10.64
2023-06-04T00:15:48.127Z,10.63
2023-06-04T00:17:51.761Z,10.63
2023-06-04T00:19:55.209Z,10.61
2023-06-04T00:21:58.673Z,10.60
2023-06-04T00:24:02.566Z,10.57
2023-06-04T00:26:06.525Z,10.53
2023-06-04T00:28:11.355Z,10.52
2023-06-04T00:30:15.508Z,10.49
2023-06-04T00:32:19.030Z,10.46
2023-06-04T00:34:22.693Z,10.45
2023-06-04T00:36:26.137Z,10.45
2023-06-04T00:38:29.550Z,10.45
2023-06-04T00:40:32.934Z,10.45
2023-06-04T00:42:36.354Z,10.42
2023-06-04T00:44:44.413Z,10.39
2023-06-04T00:46:48.808Z,10.36
2023-06-04T00:48:52.223Z,10.33
2023-06-04T00:50:56.237Z,10.30
2023-06-04T00:52:59.642Z,10.27
2023-06-04T00:55:03.576Z,10.24
2023-06-04T00:57:08.264Z,10.23
2023-06-04T00:59:11.868Z,10.19
2023-06-04T01:01:23.552Z,10.17
2023-06-04T01:03:32.671Z,10.14
2023-06-04T01:05:43.481Z,10.08
2023-06-04T01:07:48.154Z,10.04
2023-06-04T01:09:51.923Z,9.99
2023-06-04T01:11:55.332Z,9.94
2023-06-04T01:13:58.717Z,9.88
2023-06-04T01:16:03.028Z,9.84
2023-06-04T01:18:08.266Z,9.80
2023-06-04T01:20:22.363Z,9.75
2023-06-04T01:22:35.576Z,9.72
2023-06-04T01:24:43.571Z,9.68
2023-06-04T01:26:47.516Z,9.65
2023-06-04T01:28:52.028Z,9.62
2023-06-04T01:30:57.704Z,9.57
2023-06-04T01:33:02.310Z,9.55
2023-06-04T01:35:10.742Z,9.50
2023-06-04T01:37:14.578Z,9.47
2023-06-04T01:39:18.294Z,9.44
2023-06-04T01:41:21.761Z,9.42
2023-06-04T01:43:25.371Z,9.40
2023-06-04T01:45:30.277Z,9.37
2023-06-04T01:47:33.794Z,9.33
2023-06-04T01:49:38.915Z,9.30
2023-06-04T01:51:43.901Z,9.27
2023-06-04T01:53:47.312Z,9.25
2023-06-04T01:55:51.302Z,9.22
2023-06-04T01:57:54.721Z,9.19
2023-06-04T01:59:58.211Z,9.16
2023-06-04T02:02:03.048Z,9.15
2023-06-04T02:04:06.766Z,9.12
2023-06-04T02:06:10.227Z,9.10
2023-06-04T02:08:20.300Z,9.08
2023-06-04T02:10:23.961Z,9.06
2023-06-04T02:12:27.391Z,9.04
2023-06-04T02:14:30.827Z,9.02
2023-06-04T02:16:34.268Z,8.98
2023-06-04T02:18:37.682Z,8.94
2023-06-04T02:20:41.197Z,8.92
2023-06-04T02:22:44.702Z,8.89
2023-06-04T02:24:49.529Z,8.86
2023-06-04T02:26:53.114Z,8.83
2023-06-04T02:28:56.518Z,8.79
2023-06-04T02:30:59.869Z,8.77
2023-06-04T02:33:03.357Z,8.76
2023-06-04T02:35:07.527Z,8.74
2023-06-04T02:37:10.944Z,8.73
2023-06-04T02:39:14.370Z,8.70
2023-06-04T02:41:19.163Z,8.68
2023-06-04T02:43:22.562Z,8.67
2023-06-04T02:45:26.107Z,8.64
2023-06-04T02:47:30.009Z,8.63
2023-06-04T02:49:33.518Z,8.61
2023-06-04T02:51:36.901Z,8.58
2023-06-04T02:53:40.331Z,8.57
2023-06-04T02:55:43.963Z,8.54
2023-06-04T02:57:48.772Z,8.53
2023-06-04T02:59:53.152Z,8.50
2023-06-04T03:01:56.907Z,8.50
2023-06-04T03:04:00.345Z,8.49
2023-06-04T03:06:05.976Z,8.49
2023-06-04T03:08:09.464Z,8.48
2023-06-04T03:10:13.855Z,8.47
2023-06-04T03:12:17.408Z,8.47
2023-06-04T03:14:22.313Z,8.46
2023-06-04T03:16:26.004Z,8.46
2023-06-04T03:18:29.582Z,8.45
2023-06-04T03:20:39.561Z,8.44
2023-06-04T03:22:43.284Z,8.44
2023-06-04T03:24:46.907Z,8.44
2023-06-04T03:26:50.329Z,8.43
2023-06-04T03:28:54.019Z,8.42
2023-06-04T03:31:00.298Z,8.43
2023-06-04T03:33:04.987Z,8.43
2023-06-04T03:35:09.622Z,8.43
2023-06-04T03:37:13.085Z,8.43
2023-06-04T03:39:16.765Z,8.44
2023-06-04T03:41:21.174Z,8.45
2023-06-04T03:43:24.647Z,8.45
2023-06-04T03:45:32.249Z,8.47
2023-06-04T03:47:37.468Z,8.48
2023-06-04T03:49:41.857Z,8.50
2023-06-04T03:51:45.704Z,8.53
2023-06-04T03:53:50.058Z,8.54
2023-06-04T03:55:53.427Z,8.56
2023-06-04T03:57:56.914Z,8.58
2023-06-04T04:00:00.731Z,8.63
2023-06-04T04:02:04.240Z,8.67
2023-06-04T04:04:09.233Z,8.70
2023-06-04T04:06:13.129Z,8.76
2023-06-04T04:08:17.556Z,8.79
2023-06-04T04:10:21.917Z,8.84
2023-06-04T04:12:25.548Z,8.88
2023-06-04T04:14:29.310Z,8.93
2023-06-04T04:16:32.954Z,8.98
2023-06-04T04:18:37.215Z,9.00
2023-06-04T04:20:42.156Z,9.05
2023-06-04T04:22:49.820Z,9.09
2023-06-04T04:24:54.686Z,9.14
2023-06-04T04:26:59.906Z,9.18
2023-06-04T04:29:05.034Z,9.23
2023-06-04T04:31:10.119Z,9.28
2023-06-04T04:33:16.854Z,9.33
2023-06-04T04:35:25.014Z,9.36
2023-06-04T04:37:32.245Z,9.41
2023-06-04T04:39:37.864Z,9.46
2023-06-04T04:41:41.414Z,9.48
2023-06-04T04:43:44.914Z,9.52
2023-06-04T04:45:57.091Z,9.56
2023-06-04T04:48:00.825Z,9.61
2023-06-04T04:50:04.511Z,9.65
2023-06-04T04:52:07.989Z,9.70
2023-06-04T04:54:14.266Z,9.75
2023-06-04T04:56:18.884Z,9.80
2023-06-04T04:58:25.737Z,9.85
2023-06-04T05:00:31.592Z,9.90
2023-06-04T05:02:35.206Z,9.92
2023-06-04T05:04:38.776Z,9.97
2023-06-04T05:06:42.837Z,10.01
2023-06-04T05:08:46.297Z,10.07
2023-06-04T05:10:53.044Z,10.14
2023-06-04T05:12:58.172Z,10.21
2023-06-04T05:15:08.081Z,10.30
2023-06-04T05:17:12.248Z,10.37
2023-06-04T05:19:18.116Z,10.44
2023-06-04T05:21:21.837Z,10.51
2023-06-04T05:23:33.478Z,10.56
2023-06-04T05:25:37.661Z,10.60
2023-06-04T05:27:43.525Z,10.64
2023-06-04T05:29:48.505Z,10.66
2023-06-04T05:31:52.291Z,10.71
2023-06-04T05:33:58.677Z,10.76
2023-06-04T05:36:04.551Z,10.83
2023-06-04T05:38:16.794Z,10.92
2023-06-04T05:40:20.530Z,10.99
2023-06-04T05:42:24.818Z,11.06
2023-06-04T05:44:29.971Z,11.12
2023-06-04T05:46:33.757Z,11.21
2023-06-04T05:48:38.123Z,11.30
2023-06-04T05:50:41.650Z,11.39
2023-06-04T05:52:45.274Z,11.46
2023-06-04T05:54:49.976Z,11.53
2023-06-04T05:56:54.022Z,11.61
2023-06-04T05:58:57.515Z,11.69
2023-06-04T06:01:04.161Z,11.76
2023-06-04T06:03:08.304Z,11.86
2023-06-04T06:05:18.822Z,11.95
2023-06-04T06:07:22.686Z,12.05
2023-06-04T06:09:26.225Z,12.14
2023-06-04T06:11:29.866Z,12.23
2023-06-04T06:13:34.182Z,12.31
2023-06-04T06:15:37.785Z,12.39
2023-06-04T06:17:42.656Z,12.46
2023-06-04T06:19:46.181Z,12.51
2023-06-04T06:21:49.697Z,12.59
2023-06-04T06:23:54.009Z,12.66
2023-06-04T06:25:58.168Z,12.75
2023-06-04T06:28:05.129Z,12.83
2023-06-04T06:30:11.198Z,12.94
2023-06-04T06:32:15.057Z,13.04
2023-06-04T06:34:19.906Z,13.11
2023-06-04T06:36:23.396Z,13.19
2023-06-04T06:38:26.792Z,13.28
2023-06-04T06:40:31.564Z,13.36
2023-06-04T06:42:35.189Z,13.42
2023-06-04T06:44:38.570Z,13.48
2023-06-04T06:46:42.036Z,13.57
2023-06-04T06:48:46.594Z,13.67
2023-06-04T06:50:51.845Z,13.77
2023-06-04T06:52:55.247Z,13.85
2023-06-04T06:54:58.678Z,13.95
2023-06-04T06:57:02.113Z,14.01
2023-06-04T06:59:05.697Z,14.06
2023-06-04T07:01:09.453Z,14.13
2023-06-04T07:03:13.223Z,14.18
2023-06-04T07:05:18.336Z,14.24
2023-06-04T07:07:23.197Z,14.33
2023-06-04T07:09:26.673Z,14.42
2023-06-04T07:11:30.131Z,14.53
2023-06-04T07:13:36.360Z,14.63
2023-06-04T07:15:39.865Z,14.71
2023-06-04T07:17:43.319Z,14.77
2023-06-04T07:19:46.739Z,14.84
2023-06-04T07:21:50.183Z,14.91
2023-06-04T07:23:55.207Z,14.99
2023-06-04T07:25:58.982Z,15.04
2023-06-04T07:28:05.130Z,15.13
2023-06-04T07:30:09.951Z,15.24
2023-06-04T07:32:13.955Z,15.32
2023-06-04T07:34:17.609Z,15.42
2023-06-04T07:36:21.765Z,15.52
2023-06-04T07:38:25.373Z,15.63
2023-06-04T07:40:30.391Z,15.73
2023-06-04T07:42:33.845Z,15.80
2023-06-04T07:44:39.422Z,15.85
2023-06-04T07:46:42.957Z,15.90
2023-06-04T07:48:46.422Z,15.94
2023-06-04T07:50:49.977Z,16.00
2023-06-04T07:52:53.431Z,16.07
2023-06-04T07:54:56.869Z,16.14
2023-06-04T07:57:01.671Z,16.22
2023-06-04T07:59:05.098Z,16.33
2023-06-04T08:01:08.883Z,16.39
2023-06-04T08:03:12.565Z,16.48
2023-06-04T08:05:16.129Z,16.55
2023-06-04T08:07:19.640Z,16.61
2023-06-04T08:09:23.240Z,16.68
2023-06-04T08:11:26.828Z,16.74
2023-06-04T08:13:31.778Z,16.82
2023-06-04T08:15:35.176Z,16.91
2023-06-04T08:17:58.626Z,17.00
2023-06-04T08:20:02.153Z,17.09
2023-06-04T08:22:18.622Z,17.20
2023-06-04T08:24:40.089Z,17.32
2023-06-04T08:27:03.438Z,17.42
2023-06-04T08:29:12.411Z,17.50
2023-06-04T08:31:27.675Z,17.57
2023-06-04T08:33:42.651Z,17.65
2023-06-04T08:35:50.650Z,17.73
2023-06-04T08:37:54.094Z,17.83
2023-06-04T08:39:57.509Z,17.91
2023-06-04T08:42:03.994Z,17.98
2023-06-04T08:44:08.135Z,18.07
2023-06-04T08:46:14.504Z,18.12
2023-06-04T08:48:20.942Z,18.21
2023-06-04T08:50:25.606Z,18.26
2023-06-04T08:52:29.604Z,18.32
2023-06-04T08:54:33.763Z,18.38
2023-06-04T08:56:38.071Z,18.44
2023-06-04T08:58:44.166Z,18.52
2023-06-04T09:00:47.619Z,18.58
2023-06-04T09:02:52.671Z,18.59
2023-06-04T09:04:56.816Z,18.63
2023-06-04T09:07:04.632Z,18.70
2023-06-04T09:09:11.911Z,18.78
2023-06-04T09:11:17.926Z,18.88
2023-06-04T09:13:25.274Z,18.98
2023-06-04T09:15:28.641Z,19.10
2023-06-04T09:17:32.082Z,19.21
2023-06-04T09:19:36.938Z,19.29
2023-06-04T09:21:52.053Z,19.39
2023-06-04T09:23:55.552Z,19.43
2023-06-04T09:25:58.893Z,19.45
2023-06-04T09:28:08.506Z,19.48
2023-06-04T09:30:12.591Z,19.54
2023-06-04T09:32:16.105Z,19.59
2023-06-04T09:34:30.081Z,19.64
2023-06-04T09:36:37.247Z,19.72
2023-06-04T09:38:43.470Z,19.79
2023-06-04T09:40:51.801Z,19.83
2023-06-04T09:42:56.914Z,19.82
2023-06-04T09:45:02.457Z,19.81
2023-06-04T09:47:06.576Z,19.82
2023-06-04T09:49:10.057Z,19.86
2023-06-04T09:51:16.327Z,19.90
2023-06-04T09:53:23.992Z,19.95
2023-06-04T09:55:29.929Z,20.03
2023-06-04T09:57:37.149Z,20.10
2023-06-04T09:59:42.804Z,20.14
2023-06-04T10:01:46.911Z,20.21
2023-06-04T10:03:53.563Z,20.27
2023-06-04T10:05:59.279Z,20.36
2023-06-04T10:08:07.012Z,20.43
2023-06-04T10:10:17.218Z,20.51
2023-06-04T10:12:25.841Z,20.62
2023-06-04T10:14:38.232Z,20.72
2023-06-04T10:16:43.378Z,20.82
2023-06-04T10:18:47.229Z,20.90
2023-06-04T10:20:51.853Z,20.92
2023-06-04T10:22:56.509Z,20.95
2023-06-04T10:25:01.278Z,21.00
2023-06-04T10:27:12.142Z,21.08
2023-06-04T10:29:16.811Z,21.15
2023-06-04T10:31:20.797Z,21.24
2023-06-04T10:33:25.744Z,21.29
2023-06-04T10:35:33.417Z,21.29
2023-06-04T10:37:39.408Z,21.28
2023-06-04T10:39:55.334Z,21.34
2023-06-04T10:42:03.766Z,21.41
2023-06-04T10:44:09.303Z,21.50
2023-06-04T10:46:18.899Z,21.57
2023-06-04T10:48:27.437Z,21.62
2023-06-04T10:50:40.508Z,21.66
2023-06-04T10:52:58.988Z,21.69
2023-06-04T10:55:18.054Z,21.72
2023-06-04T10:57:23.430Z,21.72
2023-06-04T10:59:31.289Z,21.77
2023-06-04T11:01:39.772Z,21.83
2023-06-04T11:03:45.646Z,21.85
2023-06-04T11:05:55.609Z,21.85
2023-06-04T11:08:06.555Z,21.88
2023-06-04T11:10:23.786Z,21.93
2023-06-04T11:12:31.468Z,21.97
2023-06-04T11:14:39.329Z,22.02
2023-06-04T11:16:44.714Z,22.06
2023-06-04T11:19:00.765Z,22.08
2023-06-04T11:21:09.648Z,22.10
2023-06-04T11:23:20.177Z,22.12
2023-06-04T11:25:28.468Z,22.17
2023-06-04T11:27:40.519Z,22.23
2023-06-04T11:29:53.744Z,22.30
2023-06-04T11:32:01.522Z,22.34
2023-06-04T11:34:07.360Z,22.38
2023-06-04T11:36:27.109Z,22.44
2023-06-04T11:38:33.332Z,22.54
2023-06-04T11:40:44.357Z,22.63
2023-06-04T11:42:55.988Z,22.73
2023-06-04T11:45:05.460Z,22.76
2023-06-04T11:47:15.522Z,22.78
2023-06-04T11:49:26.686Z,22.76
2023-06-04T11:51:39.995Z,22.77
2023-06-04T11:53:48.291Z,22.80
2023-06-04T11:55:55.657Z,22.84
2023-06-04T11:58:05.063Z,22.85
2023-06-04T12:00:17.372Z,22.88
2023-06-04T12:02:28.712Z,22.95
2023-06-04T12:04:36.326Z,23.01
2023-06-04T12:07:02.984Z,23.05
2023-06-04T12:09:07.053Z,23.08
2023-06-04T12:11:10.498Z,23.11
2023-06-04T12:13:13.990Z,23.15
2023-06-04T12:15:23.619Z,23.20
2023-06-04T12:17:27.283Z,23.26
2023-06-04T12:19:31.300Z,23.32
2023-06-04T12:21:34.829Z,23.36
2023-06-04T12:23:38.327Z,23.38
2023-06-04T12:25:42.177Z,23.39
2023-06-04T12:27:50.153Z,23.46
2023-06-04T12:30:00.819Z,23.53
2023-06-04T12:32:11.990Z,23.61
2023-06-04T12:34:16.476Z,23.67
2023-06-04T12:36:19.989Z,23.65
2023-06-04T12:38:23.732Z,23.61
2023-06-04T12:40:31.368Z,23.65
2023-06-04T12:42:35.224Z,23.70
2023-06-04T12:44:38.937Z,23.75
2023-06-04T12:46:42.438Z,23.83
2023-06-04T12:48:47.428Z,23.88
2023-06-04T12:50:50.959Z,23.92
2023-06-04T12:52:54.433Z,23.97
2023-06-04T12:54:57.906Z,24.03
2023-06-04T12:57:02.358Z,24.18
2023-06-04T12:59:06.505Z,24.36
2023-06-04T13:01:10.395Z,24.50
2023-06-04T13:03:14.590Z,24.63
2023-06-04T13:05:25.571Z,24.76
2023-06-04T13:07:29.341Z,24.84
2023-06-04T13:09:34.093Z,24.98
2023-06-04T13:11:42.891Z,25.17
2023-06-04T13:13:46.485Z,25.38
2023-06-04T13:15:50.139Z,25.60
2023-06-04T13:17:53.705Z,25.72
2023-06-04T13:19:59.311Z,25.79
2023-06-04T13:22:04.394Z,25.76
2023-06-04T13:24:09.024Z,25.75
2023-06-04T13:26:12.890Z,25.83
2023-06-04T13:28:18.453Z,25.97
2023-06-04T13:30:21.968Z,26.21
2023-06-04T13:32:26.269Z,26.38
2023-06-04T13:34:29.870Z,26.51
2023-06-04T13:36:33.504Z,26.59
2023-06-04T13:38:38.614Z,26.65
2023-06-04T13:40:42.872Z,26.72
2023-06-04T13:42:47.864Z,26.81
2023-06-04T13:44:51.484Z,26.85
2023-06-04T13:46:55.286Z,26.87
2023-06-04T13:48:59.013Z,26.91
2023-06-04T13:51:02.477Z,26.92
2023-06-04T13:53:06.128Z,26.98
2023-06-04T13:55:12.312Z,27.06
2023-06-04T13:57:15.779Z,27.14
2023-06-04T13:59:19.256Z,27.22
2023-06-04T14:01:24.671Z,27.25
2023-06-04T14:03:28.298Z,27.37
2023-06-04T14:05:32.442Z,27.53
2023-06-04T14:07:36.295Z,27.55
2023-06-04T14:09:39.800Z,27.58
2023-06-04T14:11:46.077Z,27.54
2023-06-04T14:13:50.608Z,27.52
2023-06-04T14:15:54.170Z,27.63
2023-06-04T14:17:58.456Z,27.82
2023-06-04T14:20:01.958Z,28.01
2023-06-04T14:22:05.972Z,28.14
2023-06-04T14:24:11.151Z,28.12
2023-06-04T14:26:15.344Z,27.96
2023-06-04T14:28:22.094Z,27.93
2023-06-04T14:30:25.687Z,28.08
2023-06-04T14:32:29.212Z,28.21
2023-06-04T14:34:33.235Z,28.31
2023-06-04T14:36:37.206Z,28.40
2023-06-04T14:38:41.091Z,28.42
2023-06-04T14:40:47.562Z,28.39
2023-06-04T14:42:52.086Z,28.29
2023-06-04T14:44:57.149Z,28.18
2023-06-04T14:47:01.461Z,28.14
2023-06-04T14:49:04.957Z,28.07
2023-06-04T14:51:09.068Z,27.99
2023-06-04T14:53:13.602Z,28.08
2023-06-04T14:55:17.206Z,28.19
2023-06-04T14:57:20.740Z,28.15
2023-06-04T14:59:24.467Z,28.16
2023-06-04T15:01:29.771Z,28.15
2023-06-04T15:03:33.482Z,28.19
2023-06-04T15:05:37.980Z,28.11
2023-06-04T15:07:41.492Z,28.02
2023-06-04T15:09:44.935Z,28.06
2023-06-04T15:11:48.418Z,27.98
2023-06-04T15:13:51.895Z,27.91
2023-06-04T15:15:55.368Z,27.96
2023-06-04T15:18:00.303Z,28.12
2023-06-04T15:20:04.507Z,28.30
2023-06-04T15:22:07.948Z,28.24
2023-06-04T15:24:11.446Z,28.12
2023-06-04T15:26:15.070Z,28.02
2023-06-04T15:28:21.812Z,28.01
2023-06-04T15:30:25.364Z,28.02
2023-06-04T15:32:28.869Z,27.99
2023-06-04T15:34:33.953Z,27.95
2023-06-04T15:36:38.660Z,27.86
2023-06-04T15:38:42.120Z,27.75
2023-06-04T15:40:45.639Z,27.71
2023-06-04T15:42:49.144Z,27.77
2023-06-04T15:44:52.590Z,27.81
2023-06-04T15:46:56.101Z,27.79
2023-06-04T15:48:59.691Z,27.64
2023-06-04T15:51:04.733Z,27.59
2023-06-04T15:53:08.141Z,27.59
2023-06-04T15:55:11.776Z,27.48
2023-06-04T15:57:15.436Z,27.27
2023-06-04T15:59:18.952Z,27.11
2023-06-04T16:01:22.818Z,27.00
2023-06-04T16:03:26.298Z,26.92
2023-06-04T16:05:29.861Z,26.84
2023-06-04T16:07:35.113Z,26.75
2023-06-04T16:09:38.683Z,26.66
2023-06-04T16:11:42.155Z,26.45
2023-06-04T16:13:45.924Z,26.12
2023-06-04T16:15:49.465Z,25.68
2023-06-04T16:17:53.163Z,25.29
2023-06-04T16:19:56.669Z,24.95
2023-06-04T16:22:00.332Z,24.61
2023-06-04T16:24:05.493Z,24.30
2023-06-04T16:26:10.055Z,24.00
2023-06-04T16:28:13.603Z,23.69
2023-06-04T16:30:17.255Z,23.39
2023-06-04T16:32:20.706Z,23.13
2023-06-04T16:34:24.259Z,22.90
2023-06-04T16:36:27.916Z,22.69
2023-06-04T16:38:31.400Z,22.49
2023-06-04T16:40:36.338Z,22.25
2023-06-04T16:42:39.927Z,22.07
2023-06-04T16:44:43.366Z,21.98
2023-06-04T16:46:47.001Z,21.91
2023-06-04T16:48:50.863Z,21.83
2023-06-04T16:50:56.782Z,21.72
2023-06-04T16:53:00.394Z,21.57
2023-06-04T16:55:03.972Z,21.43
2023-06-04T16:57:08.964Z,21.29
2023-06-04T16:59:12.867Z,21.19
2023-06-04T17:01:16.552Z,21.13
2023-06-04T17:03:20.265Z,21.10
2023-06-04T17:05:25.445Z,21.11
2023-06-04T17:07:30.692Z,21.15
2023-06-04T17:09:34.834Z,21.13
2023-06-04T17:11:40.023Z,21.09
2023-06-04T17:13:45.034Z,21.10
2023-06-04T17:15:48.511Z,21.10
2023-06-04T17:17:52.111Z,21.09
2023-06-04T17:19:55.607Z,21.06
2023-06-04T17:21:58.959Z,21.04
2023-06-04T17:24:03.623Z,21.02
2023-06-04T17:26:07.871Z,20.94
2023-06-04T17:28:11.487Z,20.85
2023-06-04T17:30:16.443Z,20.72
2023-06-04T17:32:19.917Z,20.59
2023-06-04T17:34:23.394Z,20.47
2023-06-04T17:36:26.980Z,20.35
2023-06-04T17:38:30.637Z,20.23
2023-06-04T17:40:34.058Z,20.13
2023-06-04T17:42:37.505Z,20.05
2023-06-04T17:44:41.014Z,19.97
2023-06-04T17:46:46.367Z,19.92
2023-06-04T17:48:49.827Z,19.87
2023-06-04T17:50:53.256Z,19.81
2023-06-04T17:52:58.717Z,19.77
2023-06-04T17:55:04.364Z,19.73
2023-06-04T17:57:07.909Z,19.70
2023-06-04T17:59:11.399Z,19.65
2023-06-04T18:01:14.826Z,19.59
2023-06-04T18:03:19.821Z,19.51
2023-06-04T18:05:23.393Z,19.45
2023-06-04T18:07:26.840Z,19.39
2023-06-04T18:09:30.347Z,19.30
2023-06-04T18:11:33.854Z,19.24
2023-06-04T18:13:37.334Z,19.18
2023-06-04T18:15:40.844Z,19.12
2023-06-04T18:17:44.522Z,19.06
2023-06-04T18:19:50.103Z,18.97
2023-06-04T18:21:53.546Z,18.90
2023-06-04T18:23:58.045Z,18.81
2023-06-04T18:26:02.400Z,18.75
2023-06-04T18:28:05.871Z,18.75
2023-06-04T18:30:10.602Z,18.74
2023-06-04T18:32:14.093Z,18.66
2023-06-04T18:34:21.661Z,18.54
2023-06-04T18:36:26.554Z,18.40
2023-06-04T18:38:29.948Z,18.31
2023-06-04T18:40:33.376Z,18.23
2023-06-04T18:42:36.722Z,18.21
2023-06-04T18:44:40.276Z,18.15
2023-06-04T18:46:43.778Z,18.07
2023-06-04T18:48:48.100Z,17.98
2023-06-04T18:50:51.638Z,17.89
2023-06-04T18:52:56.671Z,17.82
2023-06-04T18:55:00.158Z,17.76
2023-06-04T18:57:03.665Z,17.70
2023-06-04T18:59:07.140Z,17.61
2023-06-04T19:01:10.683Z,17.53
2023-06-04T19:03:14.226Z,17.45
2023-06-04T19:05:18.554Z,17.39
2023-06-04T19:07:22.120Z,17.32
2023-06-04T19:09:26.958Z,17.24
2023-06-04T19:11:30.937Z,17.17
2023-06-04T19:13:34.405Z,17.08
2023-06-04T19:15:37.802Z,17.01
2023-06-04T19:17:42.760Z,16.92
2023-06-04T19:19:46.434Z,16.84
2023-06-04T19:21:53.056Z,16.75
2023-06-04T19:23:56.999Z,16.69
2023-06-04T19:26:01.988Z,16.62
2023-06-04T19:28:06.773Z,16.57
2023-06-04T19:30:11.781Z,16.52
2023-06-04T19:32:15.296Z,16.48
2023-06-04T19:34:18.706Z,16.40
2023-06-04T19:36:22.150Z,16.34
2023-06-04T19:38:25.575Z,16.28
2023-06-04T19:40:28.971Z,16.21
2023-06-04T19:42:33.793Z,16.14
2023-06-04T19:44:37.205Z,16.06
2023-06-04T19:46:40.634Z,15.98
2023-06-04T19:48:44.105Z,15.87
2023-06-04T19:50:47.561Z,15.79
2023-06-04T19:52:52.131Z,15.71
2023-06-04T19:54:55.531Z,15.65
2023-06-04T19:56:58.916Z,15.57
2023-06-04T19:59:03.751Z,15.49
2023-06-04T20:01:07.221Z,15.43
2023-06-04T20:03:10.812Z,15.37
2023-06-04T20:05:16.086Z,15.31
2023-06-04T20:07:19.531Z,15.26
2023-06-04T20:09:23.893Z,15.22
2023-06-04T20:11:27.421Z,15.18
2023-06-04T20:13:30.891Z,15.14
2023-06-04T20:15:35.771Z,15.09
2023-06-04T20:17:39.191Z,15.05
2023-06-04T20:19:42.737Z,15.00
2023-06-04T20:21:46.151Z,14.95
2023-06-04T20:23:53.529Z,14.90
2023-06-04T20:26:00.049Z,14.84
2023-06-04T20:28:03.645Z,14.80
2023-06-04T20:30:08.625Z,14.73
2023-06-04T20:32:13.459Z,14.67
2023-06-04T20:34:16.977Z,14.62
2023-06-04T20:36:20.473Z,14.58
2023-06-04T20:38:23.938Z,14.54
2023-06-04T20:40:27.318Z,14.50
2023-06-04T20:42:30.719Z,14.46
2023-06-04T20:44:34.699Z,14.42
2023-06-04T20:46:38.330Z,14.38
2023-06-04T20:48:43.589Z,14.35
2023-06-04T20:50:48.419Z,14.30
2023-06-04T20:52:52.035Z,14.24
2023-06-04T20:54:55.648Z,14.19
2023-06-04T20:56:59.180Z,14.15
2023-06-04T20:59:02.570Z,14.11
2023-06-04T21:01:06.064Z,14.09
2023-06-04T21:03:09.615Z,14.05
2023-06-04T21:05:14.524Z,14.02
2023-06-04T21:07:18.448Z,13.98
2023-06-04T21:09:22.004Z,13.93
2023-06-04T21:11:25.376Z,13.89
2023-06-04T21:13:28.888Z,13.85
2023-06-04T21:15:32.278Z,13.79
2023-06-04T21:17:35.860Z,13.77
2023-06-04T21:19:39.407Z,13.71
2023-06-04T21:21:44.305Z,13.67
2023-06-04T21:23:47.802Z,13.63
2023-06-04T21:25:51.686Z,13.57
2023-06-04T21:27:55.083Z,13.53
2023-06-04T21:29:58.557Z,13.49
2023-06-04T21:32:02.099Z,13.44
2023-06-04T21:34:05.911Z,13.39
2023-06-04T21:36:09.335Z,13.34
2023-06-04T21:38:14.302Z,13.29
2023-06-04T21:40:17.769Z,13.24
2023-06-04T21:42:21.197Z,13.20
2023-06-04T21:44:25.273Z,13.13
2023-06-04T21:46:29.502Z,13.10
2023-06-04T21:48:32.931Z,13.06
2023-06-04T21:50:36.385Z,13.01
2023-06-04T21:52:40.084Z,12.98
2023-06-04T21:54:45.029Z,12.93
2023-06-04T21:56:48.721Z,12.89
2023-06-04T21:58:52.221Z,12.89
2023-06-04T22:00:56.063Z,12.87
2023-06-04T22:02:59.791Z,12.85
2023-06-04T22:05:03.359Z,12.83
2023-06-04T22:07:06.932Z,12.80
2023-06-04T22:09:10.420Z,12.78
2023-06-04T22:11:15.317Z,12.75
2023-06-04T22:13:18.710Z,12.72
2023-06-04T22:15:22.413Z,12.69
2023-06-04T22:17:25.890Z,12.67
2023-06-04T22:19:29.308Z,12.64
2023-06-04T22:21:32.758Z,12.60
2023-06-04T22:23:36.569Z,12.59
2023-06-04T22:25:40.041Z,12.55
2023-06-04T22:27:45.154Z,12.52
2023-06-04T22:29:48.722Z,12.51
2023-06-04T22:31:52.175Z,12.48
2023-06-04T22:33:55.718Z,12.46
2023-06-04T22:35:59.209Z,12.43
2023-06-04T22:38:02.566Z,12.41
2023-06-04T22:40:07.404Z,12.37
2023-06-04T22:42:11.013Z,12.33
2023-06-04T22:44:16.306Z,12.29
2023-06-04T22:46:19.861Z,12.26
2023-06-04T22:48:23.433Z,12.21
2023-06-04T22:50:27.926Z,12.15
2023-06-04T22:52:31.783Z,12.11
2023-06-04T22:54:35.356Z,12.07
2023-06-04T22:56:38.745Z,12.04
2023-06-04T22:58:42.398Z,12.01
2023-06-04T23:00:50.328Z,11.97
2023-06-04T23:02:54.132Z,11.94
2023-06-04T23:04:57.712Z,11.91
2023-06-04T23:07:01.221Z,11.87
2023-06-04T23:09:04.914Z,11.84
2023-06-04T23:11:08.837Z,11.80
2023-06-04T23:13:12.582Z,11.77
2023-06-04T23:15:22.540Z,11.73
2023-06-04T23:17:27.695Z,11.72
2023-06-04T23:19:31.229Z,11.68
2023-06-04T23:21:34.752Z,11.66
2023-06-04T23:23:38.302Z,11.63
2023-06-04T23:25:41.767Z,11.60
2023-06-04T23:27:45.240Z,11.57
2023-06-04T23:29:48.772Z,11.54
2023-06-04T23:31:52.376Z,11.51
2023-06-04T23:33:57.342Z,11.49
2023-06-04T23:36:00.973Z,11.47
2023-06-04T23:38:04.520Z,11.44
2023-06-04T23:40:09.444Z,11.41
2023-06-04T23:42:12.997Z,11.38
2023-06-04T23:44:18.348Z,11.36
2023-06-04T23:46:23.345Z,11.32
2023-06-04T23:48:26.898Z,11.31
2023-06-04T23:50:31.677Z,11.28
2023-06-04T23:52:35.124Z,11.26
2023-06-04T23:54:38.555Z,11.22
2023-06-04T23:56:43.340Z,11.19
2023-06-04T23:58:46.738Z,11.17
